sensor_id;sensor_type;location;lat;lon;timestamp;P1;durP1;ratioP1;P2;durP2;ratioP2
25299;SDS011;13241;51.208;4.432;2023-07-16T00:00:33;5.65;;;1.58;;
25299;SDS011;13241;51.208;4.432;2023-07-16T00:03:02;4.47;;;1.30;;
25299;SDS011;13241;51.208;4.432;2023-07-16T00:05:29;3.38;;;0.88;;
25299;SDS011;13241;51.208;4.432;2023-07-16T00:07:57;3.83;;;1.20;;
25299;SDS011;13241;51.208;4.432;2023-07-16T00:10:24;3.55;;;1.05;;
25299;SDS011;13241;51.208;4.432;2023-07-16T00:12:51;2.15;;;0.98;;
25299;SDS011;13241;51.208;4.432;2023-07-16T00:15:19;2.85;;;1.05;;
25299;SDS011;13241;51.208;4.432;2023-07-16T00:17:46;10.10;;;1.25;;
25299;SDS011;13241;51.208;4.432;2023-07-16T00:20:14;4.13;;;1.10;;
25299;SDS011;13241;51.208;4.432;2023-07-16T00:22:41;6.15;;;0.98;;
25299;SDS011;13241;51.208;4.432;2023-07-16T00:25:08;9.02;;;1.50;;
25299;SDS011;13241;51.208;4.432;2023-07-16T00:27:36;7.93;;;1.17;;
25299;SDS011;13241;51.208;4.432;2023-07-16T00:30:03;11.00;;;1.55;;
25299;SDS011;13241;51.208;4.432;2023-07-16T00:32:31;6.28;;;1.05;;
25299;SDS011;13241;51.208;4.432;2023-07-16T00:34:58;6.25;;;1.50;;
25299;SDS011;13241;51.208;4.432;2023-07-16T00:37:26;1.98;;;0.85;;
25299;SDS011;13241;51.208;4.432;2023-07-16T00:39:53;7.72;;;1.33;;
25299;SDS011;13241;51.208;4.432;2023-07-16T00:42:21;9.00;;;1.08;;
25299;SDS011;13241;51.208;4.432;2023-07-16T00:44:50;4.00;;;1.45;;
25299;SDS011;13241;51.208;4.432;2023-07-16T00:47:17;5.22;;;1.33;;
25299;SDS011;13241;51.208;4.432;2023-07-16T00:49:45;3.92;;;1.23;;
25299;SDS011;13241;51.208;4.432;2023-07-16T00:52:14;3.60;;;1.23;;
25299;SDS011;13241;51.208;4.432;2023-07-16T00:54:43;4.75;;;1.88;;
25299;SDS011;13241;51.208;4.432;2023-07-16T00:57:11;5.68;;;1.45;;
25299;SDS011;13241;51.208;4.432;2023-07-16T00:59:38;4.70;;;1.23;;
25299;SDS011;13241;51.208;4.432;2023-07-16T01:02:05;7.97;;;1.70;;
25299;SDS011;13241;51.208;4.432;2023-07-16T01:04:33;1.98;;;1.33;;
25299;SDS011;13241;51.208;4.432;2023-07-16T01:07:01;4.65;;;1.17;;
25299;SDS011;13241;51.208;4.432;2023-07-16T01:09:32;5.18;;;1.40;;
25299;SDS011;13241;51.208;4.432;2023-07-16T01:11:59;3.08;;;1.10;;
25299;SDS011;13241;51.208;4.432;2023-07-16T01:14:27;3.53;;;1.00;;
25299;SDS011;13241;51.208;4.432;2023-07-16T01:16:54;4.50;;;1.13;;
25299;SDS011;13241;51.208;4.432;2023-07-16T01:19:25;4.80;;;1.20;;
25299;SDS011;13241;51.208;4.432;2023-07-16T01:29:36;5.20;;;1.10;;
25299;SDS011;13241;51.208;4.432;2023-07-16T01:32:07;3.63;;;1.30;;
25299;SDS011;13241;51.208;4.432;2023-07-16T01:34:36;1.63;;;0.95;;
25299;SDS011;13241;51.208;4.432;2023-07-16T01:37:04;1.67;;;0.93;;
25299;SDS011;13241;51.208;4.432;2023-07-16T01:39:32;6.75;;;1.35;;
25299;SDS011;13241;51.208;4.432;2023-07-16T01:41:59;4.68;;;1.20;;
25299;SDS011;13241;51.208;4.432;2023-07-16T01:44:27;2.08;;;1.02;;
25299;SDS011;13241;51.208;4.432;2023-07-16T01:47:03;4.28;;;1.33;;
25299;SDS011;13241;51.208;4.432;2023-07-16T01:49:32;2.78;;;1.15;;
25299;SDS011;13241;51.208;4.432;2023-07-16T01:52:00;4.10;;;1.17;;
25299;SDS011;13241;51.208;4.432;2023-07-16T01:54:29;1.90;;;0.95;;
25299;SDS011;13241;51.208;4.432;2023-07-16T01:56:56;2.08;;;1.13;;
25299;SDS011;13241;51.208;4.432;2023-07-16T01:59:24;5.32;;;1.50;;
25299;SDS011;13241;51.208;4.432;2023-07-16T02:01:55;2.20;;;1.08;;
25299;SDS011;13241;51.208;4.432;2023-07-16T02:04:22;9.07;;;1.80;;
25299;SDS011;13241;51.208;4.432;2023-07-16T02:06:49;5.47;;;1.67;;
25299;SDS011;13241;51.208;4.432;2023-07-16T02:09:19;3.53;;;1.30;;
25299;SDS011;13241;51.208;4.432;2023-07-16T02:11:47;6.00;;;1.33;;
25299;SDS011;13241;51.208;4.432;2023-07-16T02:14:14;5.63;;;0.90;;
25299;SDS011;13241;51.208;4.432;2023-07-16T02:16:42;3.67;;;1.15;;
25299;SDS011;13241;51.208;4.432;2023-07-16T02:19:10;4.68;;;1.25;;
25299;SDS011;13241;51.208;4.432;2023-07-16T02:21:37;7.63;;;1.38;;
25299;SDS011;13241;51.208;4.432;2023-07-16T02:24:04;4.80;;;1.10;;
25299;SDS011;13241;51.208;4.432;2023-07-16T02:26:32;10.65;;;1.55;;
25299;SDS011;13241;51.208;4.432;2023-07-16T02:28:59;5.00;;;1.50;;
25299;SDS011;13241;51.208;4.432;2023-07-16T02:31:27;4.55;;;1.23;;
25299;SDS011;13241;51.208;4.432;2023-07-16T02:33:54;4.82;;;1.50;;
25299;SDS011;13241;51.208;4.432;2023-07-16T02:36:21;5.82;;;1.75;;
25299;SDS011;13241;51.208;4.432;2023-07-16T02:38:49;6.43;;;1.40;;
25299;SDS011;13241;51.208;4.432;2023-07-16T02:41:16;3.88;;;1.52;;
25299;SDS011;13241;51.208;4.432;2023-07-16T02:43:45;5.88;;;1.85;;
25299;SDS011;13241;51.208;4.432;2023-07-16T02:46:12;3.00;;;1.40;;
25299;SDS011;13241;51.208;4.432;2023-07-16T02:48:40;5.10;;;1.48;;
25299;SDS011;13241;51.208;4.432;2023-07-16T02:51:08;3.72;;;1.80;;
25299;SDS011;13241;51.208;4.432;2023-07-16T02:53:35;2.25;;;1.58;;
25299;SDS011;13241;51.208;4.432;2023-07-16T02:56:02;5.28;;;1.60;;
25299;SDS011;13241;51.208;4.432;2023-07-16T02:58:30;7.63;;;1.98;;
25299;SDS011;13241;51.208;4.432;2023-07-16T03:00:59;4.55;;;1.98;;
25299;SDS011;13241;51.208;4.432;2023-07-16T03:03:26;7.47;;;1.77;;
25299;SDS011;13241;51.208;4.432;2023-07-16T03:06:01;5.35;;;1.92;;
25299;SDS011;13241;51.208;4.432;2023-07-16T03:08:29;5.30;;;1.50;;
25299;SDS011;13241;51.208;4.432;2023-07-16T03:10:57;5.60;;;1.95;;
25299;SDS011;13241;51.208;4.432;2023-07-16T03:13:25;7.88;;;1.98;;
25299;SDS011;13241;51.208;4.432;2023-07-16T03:15:53;2.90;;;1.35;;
25299;SDS011;13241;51.208;4.432;2023-07-16T03:18:20;17.13;;;2.25;;
25299;SDS011;13241;51.208;4.432;2023-07-16T03:20:48;3.50;;;1.88;;
25299;SDS011;13241;51.208;4.432;2023-07-16T03:23:15;4.05;;;2.20;;
25299;SDS011;13241;51.208;4.432;2023-07-16T03:25:42;3.03;;;1.15;;
25299;SDS011;13241;51.208;4.432;2023-07-16T03:28:10;5.20;;;1.75;;
25299;SDS011;13241;51.208;4.432;2023-07-16T03:30:38;4.35;;;1.73;;
25299;SDS011;13241;51.208;4.432;2023-07-16T03:33:05;4.72;;;2.03;;
25299;SDS011;13241;51.208;4.432;2023-07-16T03:35:33;8.02;;;1.60;;
25299;SDS011;13241;51.208;4.432;2023-07-16T03:38:01;5.78;;;1.85;;
25299;SDS011;13241;51.208;4.432;2023-07-16T03:40:29;5.13;;;1.85;;
25299;SDS011;13241;51.208;4.432;2023-07-16T03:42:57;8.05;;;2.03;;
25299;SDS011;13241;51.208;4.432;2023-07-16T03:45:24;4.32;;;2.60;;
25299;SDS011;13241;51.208;4.432;2023-07-16T03:47:51;5.13;;;2.15;;
25299;SDS011;13241;51.208;4.432;2023-07-16T03:50:19;5.43;;;2.38;;
25299;SDS011;13241;51.208;4.432;2023-07-16T03:52:46;5.78;;;2.28;;
25299;SDS011;13241;51.208;4.432;2023-07-16T03:55:14;5.28;;;2.00;;
25299;SDS011;13241;51.208;4.432;2023-07-16T03:57:42;17.20;;;3.15;;
25299;SDS011;13241;51.208;4.432;2023-07-16T04:00:09;7.00;;;2.03;;
25299;SDS011;13241;51.208;4.432;2023-07-16T04:02:40;6.15;;;1.73;;
25299;SDS011;13241;51.208;4.432;2023-07-16T04:05:13;5.17;;;2.13;;
25299;SDS011;13241;51.208;4.432;2023-07-16T04:07:40;9.82;;;2.33;;
25299;SDS011;13241;51.208;4.432;2023-07-16T04:10:07;6.68;;;2.55;;
25299;SDS011;13241;51.208;4.432;2023-07-16T04:12:35;5.57;;;2.35;;
25299;SDS011;13241;51.208;4.432;2023-07-16T04:15:06;3.45;;;2.05;;
25299;SDS011;13241;51.208;4.432;2023-07-16T04:17:33;7.53;;;1.85;;
25299;SDS011;13241;51.208;4.432;2023-07-16T04:20:01;9.00;;;2.05;;
25299;SDS011;13241;51.208;4.432;2023-07-16T04:22:29;7.32;;;2.40;;
25299;SDS011;13241;51.208;4.432;2023-07-16T04:24:56;5.88;;;2.50;;
25299;SDS011;13241;51.208;4.432;2023-07-16T04:27:24;6.85;;;2.40;;
25299;SDS011;13241;51.208;4.432;2023-07-16T04:29:51;8.80;;;2.60;;
25299;SDS011;13241;51.208;4.432;2023-07-16T04:32:18;8.95;;;2.28;;
25299;SDS011;13241;51.208;4.432;2023-07-16T04:34:46;7.00;;;3.22;;
25299;SDS011;13241;51.208;4.432;2023-07-16T04:37:13;7.15;;;2.45;;
25299;SDS011;13241;51.208;4.432;2023-07-16T04:39:40;5.47;;;2.30;;
25299;SDS011;13241;51.208;4.432;2023-07-16T04:42:08;9.07;;;1.98;;
25299;SDS011;13241;51.208;4.432;2023-07-16T04:44:35;5.45;;;2.58;;
25299;SDS011;13241;51.208;4.432;2023-07-16T04:47:02;6.10;;;2.45;;
25299;SDS011;13241;51.208;4.432;2023-07-16T04:49:31;6.00;;;2.85;;
25299;SDS011;13241;51.208;4.432;2023-07-16T04:51:58;2.63;;;1.90;;
25299;SDS011;13241;51.208;4.432;2023-07-16T04:54:26;9.63;;;2.40;;
25299;SDS011;13241;51.208;4.432;2023-07-16T04:56:53;5.95;;;2.75;;
25299;SDS011;13241;51.208;4.432;2023-07-16T04:59:21;5.18;;;2.53;;
25299;SDS011;13241;51.208;4.432;2023-07-16T05:01:49;8.63;;;2.55;;
25299;SDS011;13241;51.208;4.432;2023-07-16T05:04:16;6.40;;;2.60;;
25299;SDS011;13241;51.208;4.432;2023-07-16T05:06:44;11.65;;;2.17;;
25299;SDS011;13241;51.208;4.432;2023-07-16T05:09:11;8.88;;;3.05;;
25299;SDS011;13241;51.208;4.432;2023-07-16T05:11:38;14.10;;;3.00;;
25299;SDS011;13241;51.208;4.432;2023-07-16T05:14:05;5.53;;;2.72;;
25299;SDS011;13241;51.208;4.432;2023-07-16T05:16:33;7.95;;;2.83;;
25299;SDS011;13241;51.208;4.432;2023-07-16T05:19:00;6.88;;;2.25;;
25299;SDS011;13241;51.208;4.432;2023-07-16T05:21:28;8.13;;;2.45;;
25299;SDS011;13241;51.208;4.432;2023-07-16T05:23:56;9.52;;;3.05;;
25299;SDS011;13241;51.208;4.432;2023-07-16T05:26:23;5.50;;;2.17;;
25299;SDS011;13241;51.208;4.432;2023-07-16T05:28:50;7.85;;;3.15;;
25299;SDS011;13241;51.208;4.432;2023-07-16T05:31:18;4.40;;;2.50;;
25299;SDS011;13241;51.208;4.432;2023-07-16T05:33:45;4.93;;;2.53;;
25299;SDS011;13241;51.208;4.432;2023-07-16T05:36:12;5.05;;;2.63;;
25299;SDS011;13241;51.208;4.432;2023-07-16T05:38:40;6.35;;;2.60;;
25299;SDS011;13241;51.208;4.432;2023-07-16T05:41:07;8.00;;;3.08;;
25299;SDS011;13241;51.208;4.432;2023-07-16T05:43:35;7.13;;;2.85;;
25299;SDS011;13241;51.208;4.432;2023-07-16T05:46:02;10.02;;;3.88;;
25299;SDS011;13241;51.208;4.432;2023-07-16T05:48:31;9.93;;;3.00;;
25299;SDS011;13241;51.208;4.432;2023-07-16T05:50:59;8.13;;;3.47;;
25299;SDS011;13241;51.208;4.432;2023-07-16T05:53:26;8.73;;;2.60;;
25299;SDS011;13241;51.208;4.432;2023-07-16T05:55:53;8.63;;;2.78;;
25299;SDS011;13241;51.208;4.432;2023-07-16T05:58:21;7.20;;;2.80;;
25299;SDS011;13241;51.208;4.432;2023-07-16T06:00:48;5.72;;;2.83;;
25299;SDS011;13241;51.208;4.432;2023-07-16T06:03:15;9.55;;;3.35;;
25299;SDS011;13241;51.208;4.432;2023-07-16T06:05:45;8.05;;;2.80;;
25299;SDS011;13241;51.208;4.432;2023-07-16T06:08:12;8.15;;;2.42;;
25299;SDS011;13241;51.208;4.432;2023-07-16T06:10:39;9.63;;;3.25;;
25299;SDS011;13241;51.208;4.432;2023-07-16T06:13:07;8.55;;;2.75;;
25299;SDS011;13241;51.208;4.432;2023-07-16T06:15:34;8.48;;;3.05;;
25299;SDS011;13241;51.208;4.432;2023-07-16T06:18:03;6.82;;;3.00;;
25299;SDS011;13241;51.208;4.432;2023-07-16T06:20:30;6.38;;;2.10;;
25299;SDS011;13241;51.208;4.432;2023-07-16T06:22:57;7.53;;;2.38;;
25299;SDS011;13241;51.208;4.432;2023-07-16T06:25:25;9.02;;;2.97;;
25299;SDS011;13241;51.208;4.432;2023-07-16T06:27:52;3.95;;;2.60;;
25299;SDS011;13241;51.208;4.432;2023-07-16T06:30:19;8.45;;;2.72;;
25299;SDS011;13241;51.208;4.432;2023-07-16T06:32:47;7.40;;;2.78;;
25299;SDS011;13241;51.208;4.432;2023-07-16T06:35:14;8.23;;;3.30;;
25299;SDS011;13241;51.208;4.432;2023-07-16T06:37:41;6.05;;;2.45;;
25299;SDS011;13241;51.208;4.432;2023-07-16T06:40:09;16.95;;;3.03;;
25299;SDS011;13241;51.208;4.432;2023-07-16T06:42:36;8.05;;;2.97;;
25299;SDS011;13241;51.208;4.432;2023-07-16T06:45:05;12.27;;;3.58;;
25299;SDS011;13241;51.208;4.432;2023-07-16T06:47:33;13.13;;;3.58;;
25299;SDS011;13241;51.208;4.432;2023-07-16T06:50:00;6.60;;;3.30;;
25299;SDS011;13241;51.208;4.432;2023-07-16T06:52:27;10.23;;;3.70;;
25299;SDS011;13241;51.208;4.432;2023-07-16T06:54:54;7.25;;;2.78;;
25299;SDS011;13241;51.208;4.432;2023-07-16T06:57:22;12.27;;;3.83;;
25299;SDS011;13241;51.208;4.432;2023-07-16T06:59:50;17.75;;;5.68;;
25299;SDS011;13241;51.208;4.432;2023-07-16T07:02:17;6.53;;;2.40;;
25299;SDS011;13241;51.208;4.432;2023-07-16T07:04:44;6.88;;;2.78;;
25299;SDS011;13241;51.208;4.432;2023-07-16T07:07:11;6.00;;;2.50;;
25299;SDS011;13241;51.208;4.432;2023-07-16T07:09:39;5.43;;;2.35;;
25299;SDS011;13241;51.208;4.432;2023-07-16T07:12:06;6.82;;;1.88;;
25299;SDS011;13241;51.208;4.432;2023-07-16T07:14:34;8.68;;;2.85;;
25299;SDS011;13241;51.208;4.432;2023-07-16T07:17:01;9.30;;;2.65;;
25299;SDS011;13241;51.208;4.432;2023-07-16T07:19:29;5.78;;;3.00;;
25299;SDS011;13241;51.208;4.432;2023-07-16T07:21:56;7.93;;;3.10;;
25299;SDS011;13241;51.208;4.432;2023-07-16T07:24:23;9.88;;;3.33;;
25299;SDS011;13241;51.208;4.432;2023-07-16T07:26:50;7.07;;;2.97;;
25299;SDS011;13241;51.208;4.432;2023-07-16T07:29:18;22.10;;;2.80;;
25299;SDS011;13241;51.208;4.432;2023-07-16T07:31:45;9.63;;;2.47;;
25299;SDS011;13241;51.208;4.432;2023-07-16T07:34:12;4.40;;;2.72;;
25299;SDS011;13241;51.208;4.432;2023-07-16T07:36:40;14.05;;;3.33;;
25299;SDS011;13241;51.208;4.432;2023-07-16T07:39:07;8.27;;;2.45;;
25299;SDS011;13241;51.208;4.432;2023-07-16T07:41:34;8.90;;;2.50;;
25299;SDS011;13241;51.208;4.432;2023-07-16T07:44:01;9.27;;;3.22;;
25299;SDS011;13241;51.208;4.432;2023-07-16T07:46:29;9.88;;;2.63;;
25299;SDS011;13241;51.208;4.432;2023-07-16T07:48:56;12.30;;;3.38;;
25299;SDS011;13241;51.208;4.432;2023-07-16T07:51:23;10.48;;;2.78;;
25299;SDS011;13241;51.208;4.432;2023-07-16T07:53:51;6.28;;;3.22;;
25299;SDS011;13241;51.208;4.432;2023-07-16T07:56:18;9.02;;;2.63;;
25299;SDS011;13241;51.208;4.432;2023-07-16T07:58:45;5.00;;;2.83;;
25299;SDS011;13241;51.208;4.432;2023-07-16T08:01:13;7.60;;;3.00;;
25299;SDS011;13241;51.208;4.432;2023-07-16T08:03:40;8.20;;;3.15;;
25299;SDS011;13241;51.208;4.432;2023-07-16T08:06:08;6.55;;;2.45;;
25299;SDS011;13241;51.208;4.432;2023-07-16T08:08:38;8.07;;;2.53;;
25299;SDS011;13241;51.208;4.432;2023-07-16T08:11:05;8.38;;;2.65;;
25299;SDS011;13241;51.208;4.432;2023-07-16T08:13:32;9.30;;;2.13;;
25299;SDS011;13241;51.208;4.432;2023-07-16T08:16:00;6.68;;;2.33;;
25299;SDS011;13241;51.208;4.432;2023-07-16T08:18:27;6.95;;;2.75;;
25299;SDS011;13241;51.208;4.432;2023-07-16T08:20:54;10.10;;;2.83;;
25299;SDS011;13241;51.208;4.432;2023-07-16T08:23:22;7.18;;;3.17;;
25299;SDS011;13241;51.208;4.432;2023-07-16T08:25:49;6.32;;;2.58;;
25299;SDS011;13241;51.208;4.432;2023-07-16T08:28:17;8.90;;;3.40;;
25299;SDS011;13241;51.208;4.432;2023-07-16T08:30:48;14.60;;;2.97;;
25299;SDS011;13241;51.208;4.432;2023-07-16T08:33:15;7.72;;;2.50;;
25299;SDS011;13241;51.208;4.432;2023-07-16T08:35:43;8.23;;;2.85;;
25299;SDS011;13241;51.208;4.432;2023-07-16T08:38:10;9.82;;;2.70;;
25299;SDS011;13241;51.208;4.432;2023-07-16T08:40:38;6.68;;;2.25;;
25299;SDS011;13241;51.208;4.432;2023-07-16T08:43:06;6.38;;;2.47;;
25299;SDS011;13241;51.208;4.432;2023-07-16T08:45:34;11.27;;;2.75;;
25299;SDS011;13241;51.208;4.432;2023-07-16T08:48:02;7.07;;;3.22;;
25299;SDS011;13241;51.208;4.432;2023-07-16T08:50:30;7.00;;;2.67;;
25299;SDS011;13241;51.208;4.432;2023-07-16T08:52:58;6.05;;;2.88;;
25299;SDS011;13241;51.208;4.432;2023-07-16T08:55:25;5.88;;;2.83;;
25299;SDS011;13241;51.208;4.432;2023-07-16T08:57:53;9.00;;;3.05;;
25299;SDS011;13241;51.208;4.432;2023-07-16T09:00:20;8.20;;;2.50;;
25299;SDS011;13241;51.208;4.432;2023-07-16T09:02:55;5.30;;;3.05;;
25299;SDS011;13241;51.208;4.432;2023-07-16T09:05:22;6.30;;;2.50;;
25299;SDS011;13241;51.208;4.432;2023-07-16T09:08:05;6.78;;;2.35;;
25299;SDS011;13241;51.208;4.432;2023-07-16T09:10:33;6.20;;;2.60;;
25299;SDS011;13241;51.208;4.432;2023-07-16T09:13:01;6.78;;;2.33;;
25299;SDS011;13241;51.208;4.432;2023-07-16T09:15:29;6.28;;;2.38;;
25299;SDS011;13241;51.208;4.432;2023-07-16T09:17:56;6.15;;;2.28;;
25299;SDS011;13241;51.208;4.432;2023-07-16T09:20:24;8.80;;;2.85;;
25299;SDS011;13241;51.208;4.432;2023-07-16T09:22:55;6.38;;;2.40;;
25299;SDS011;13241;51.208;4.432;2023-07-16T09:25:29;4.40;;;2.03;;
25299;SDS011;13241;51.208;4.432;2023-07-16T09:28:03;5.00;;;2.05;;
25299;SDS011;13241;51.208;4.432;2023-07-16T09:30:33;5.38;;;2.38;;
25299;SDS011;13241;51.208;4.432;2023-07-16T09:33:14;7.78;;;2.42;;
25299;SDS011;13241;51.208;4.432;2023-07-16T09:35:42;4.28;;;2.08;;
25299;SDS011;13241;51.208;4.432;2023-07-16T09:38:10;5.85;;;2.28;;
25299;SDS011;13241;51.208;4.432;2023-07-16T09:40:37;8.23;;;2.85;;
25299;SDS011;13241;51.208;4.432;2023-07-16T09:43:05;9.77;;;2.70;;
25299;SDS011;13241;51.208;4.432;2023-07-16T09:45:33;6.85;;;2.70;;
25299;SDS011;13241;51.208;4.432;2023-07-16T09:48:01;5.95;;;2.30;;
25299;SDS011;13241;51.208;4.432;2023-07-16T09:50:29;7.47;;;2.45;;
25299;SDS011;13241;51.208;4.432;2023-07-16T09:53:00;9.38;;;2.47;;
25299;SDS011;13241;51.208;4.432;2023-07-16T09:55:30;5.03;;;3.15;;
25299;SDS011;13241;51.208;4.432;2023-07-16T09:57:59;3.65;;;2.15;;
25299;SDS011;13241;51.208;4.432;2023-07-16T10:00:27;5.90;;;2.58;;
25299;SDS011;13241;51.208;4.432;2023-07-16T10:02:55;7.40;;;2.53;;
25299;SDS011;13241;51.208;4.432;2023-07-16T10:07:53;6.88;;;2.60;;
25299;SDS011;13241;51.208;4.432;2023-07-16T10:10:25;5.28;;;2.58;;
25299;SDS011;13241;51.208;4.432;2023-07-16T10:12:55;5.93;;;2.28;;
25299;SDS011;13241;51.208;4.432;2023-07-16T10:15:30;5.55;;;2.35;;
25299;SDS011;13241;51.208;4.432;2023-07-16T10:17:57;7.93;;;2.42;;
25299;SDS011;13241;51.208;4.432;2023-07-16T10:20:29;11.93;;;3.03;;
25299;SDS011;13241;51.208;4.432;2023-07-16T10:22:56;9.48;;;2.70;;
25299;SDS011;13241;51.208;4.432;2023-07-16T10:25:25;5.72;;;2.35;;
25299;SDS011;13241;51.208;4.432;2023-07-16T10:27:53;10.48;;;2.13;;
25299;SDS011;13241;51.208;4.432;2023-07-16T10:30:21;5.85;;;2.35;;
25299;SDS011;13241;51.208;4.432;2023-07-16T10:32:50;8.23;;;2.72;;
25299;SDS011;13241;51.208;4.432;2023-07-16T10:35:18;7.30;;;2.67;;
25299;SDS011;13241;51.208;4.432;2023-07-16T10:37:46;5.15;;;2.47;;
25299;SDS011;13241;51.208;4.432;2023-07-16T10:40:14;9.25;;;2.83;;
25299;SDS011;13241;51.208;4.432;2023-07-16T10:42:42;7.88;;;2.28;;
25299;SDS011;13241;51.208;4.432;2023-07-16T10:45:10;12.73;;;2.72;;
25299;SDS011;13241;51.208;4.432;2023-07-16T10:47:50;11.38;;;3.15;;
25299;SDS011;13241;51.208;4.432;2023-07-16T10:50:18;7.22;;;3.00;;
25299;SDS011;13241;51.208;4.432;2023-07-16T10:52:54;6.43;;;2.60;;
25299;SDS011;13241;51.208;4.432;2023-07-16T10:55:22;9.45;;;3.80;;
25299;SDS011;13241;51.208;4.432;2023-07-16T10:57:50;6.60;;;3.55;;
25299;SDS011;13241;51.208;4.432;2023-07-16T11:00:18;6.22;;;2.40;;
25299;SDS011;13241;51.208;4.432;2023-07-16T11:02:45;2.22;;;1.50;;
25299;SDS011;13241;51.208;4.432;2023-07-16T11:05:14;4.57;;;2.10;;
25299;SDS011;13241;51.208;4.432;2023-07-16T11:07:48;8.57;;;3.10;;
25299;SDS011;13241;51.208;4.432;2023-07-16T11:10:21;3.65;;;2.13;;
25299;SDS011;13241;51.208;4.432;2023-07-16T11:12:52;7.35;;;2.47;;
25299;SDS011;13241;51.208;4.432;2023-07-16T11:15:32;3.22;;;1.75;;
25299;SDS011;13241;51.208;4.432;2023-07-16T11:18:01;8.65;;;2.22;;
25299;SDS011;13241;51.208;4.432;2023-07-16T11:20:29;6.30;;;2.42;;
25299;SDS011;13241;51.208;4.432;2023-07-16T11:23:00;9.38;;;2.10;;
25299;SDS011;13241;51.208;4.432;2023-07-16T11:25:28;5.25;;;1.95;;
25299;SDS011;13241;51.208;4.432;2023-07-16T11:27:55;2.38;;;1.35;;
25299;SDS011;13241;51.208;4.432;2023-07-16T11:30:23;6.75;;;1.55;;
25299;SDS011;13241;51.208;4.432;2023-07-16T11:32:51;4.35;;;1.55;;
25299;SDS011;13241;51.208;4.432;2023-07-16T11:35:20;1.55;;;0.98;;
25299;SDS011;13241;51.208;4.432;2023-07-16T11:37:47;1.83;;;1.35;;
25299;SDS011;13241;51.208;4.432;2023-07-16T11:40:16;4.45;;;1.30;;
25299;SDS011;13241;51.208;4.432;2023-07-16T11:42:43;2.38;;;1.23;;
25299;SDS011;13241;51.208;4.432;2023-07-16T11:45:29;5.82;;;1.48;;
25299;SDS011;13241;51.208;4.432;2023-07-16T11:47:56;2.17;;;1.15;;
25299;SDS011;13241;51.208;4.432;2023-07-16T11:50:26;4.10;;;1.08;;
25299;SDS011;13241;51.208;4.432;2023-07-16T11:52:53;4.05;;;1.25;;
25299;SDS011;13241;51.208;4.432;2023-07-16T11:55:22;2.63;;;1.05;;
25299;SDS011;13241;51.208;4.432;2023-07-16T11:57:49;3.25;;;1.10;;
25299;SDS011;13241;51.208;4.432;2023-07-16T12:00:17;4.57;;;1.40;;
25299;SDS011;13241;51.208;4.432;2023-07-16T12:02:45;4.55;;;1.40;;
25299;SDS011;13241;51.208;4.432;2023-07-16T12:05:18;3.70;;;1.30;;
25299;SDS011;13241;51.208;4.432;2023-07-16T12:07:47;2.90;;;0.95;;
25299;SDS011;13241;51.208;4.432;2023-07-16T12:10:15;2.60;;;1.05;;
25299;SDS011;13241;51.208;4.432;2023-07-16T12:12:43;3.83;;;1.42;;
25299;SDS011;13241;51.208;4.432;2023-07-16T12:15:10;4.93;;;1.20;;
25299;SDS011;13241;51.208;4.432;2023-07-16T12:17:38;3.83;;;1.02;;
25299;SDS011;13241;51.208;4.432;2023-07-16T12:20:05;2.58;;;1.17;;
25299;SDS011;13241;51.208;4.432;2023-07-16T12:22:33;6.10;;;1.13;;
25299;SDS011;13241;51.208;4.432;2023-07-16T12:25:02;4.63;;;1.48;;
25299;SDS011;13241;51.208;4.432;2023-07-16T12:27:30;3.40;;;1.25;;
25299;SDS011;13241;51.208;4.432;2023-07-16T12:29:57;5.07;;;1.30;;
25299;SDS011;13241;51.208;4.432;2023-07-16T12:32:24;5.13;;;1.55;;
25299;SDS011;13241;51.208;4.432;2023-07-16T12:34:52;2.35;;;1.23;;
25299;SDS011;13241;51.208;4.432;2023-07-16T12:37:21;2.95;;;1.10;;
25299;SDS011;13241;51.208;4.432;2023-07-16T12:39:49;3.03;;;1.63;;
25299;SDS011;13241;51.208;4.432;2023-07-16T12:42:16;6.45;;;1.70;;
25299;SDS011;13241;51.208;4.432;2023-07-16T12:44:43;3.95;;;1.63;;
25299;SDS011;13241;51.208;4.432;2023-07-16T12:47:11;2.88;;;1.58;;
25299;SDS011;13241;51.208;4.432;2023-07-16T12:49:39;3.65;;;1.60;;
25299;SDS011;13241;51.208;4.432;2023-07-16T12:52:06;7.47;;;2.25;;
25299;SDS011;13241;51.208;4.432;2023-07-16T12:54:34;3.95;;;1.88;;
25299;SDS011;13241;51.208;4.432;2023-07-16T12:57:01;4.15;;;1.45;;
25299;SDS011;13241;51.208;4.432;2023-07-16T12:59:29;4.75;;;1.92;;
25299;SDS011;13241;51.208;4.432;2023-07-16T13:01:58;4.68;;;1.50;;
25299;SDS011;13241;51.208;4.432;2023-07-16T13:04:25;2.45;;;1.75;;
25299;SDS011;13241;51.208;4.432;2023-07-16T13:06:52;7.68;;;1.65;;
25299;SDS011;13241;51.208;4.432;2023-07-16T13:09:19;3.58;;;1.70;;
25299;SDS011;13241;51.208;4.432;2023-07-16T13:11:47;4.13;;;1.73;;
25299;SDS011;13241;51.208;4.432;2023-07-16T13:14:14;7.25;;;2.05;;
25299;SDS011;13241;51.208;4.432;2023-07-16T13:16:41;4.10;;;1.27;;
25299;SDS011;13241;51.208;4.432;2023-07-16T13:19:09;5.22;;;1.83;;
25299;SDS011;13241;51.208;4.432;2023-07-16T13:21:36;5.07;;;1.58;;
25299;SDS011;13241;51.208;4.432;2023-07-16T13:24:04;5.05;;;1.65;;
25299;SDS011;13241;51.208;4.432;2023-07-16T13:26:31;3.30;;;1.48;;
25299;SDS011;13241;51.208;4.432;2023-07-16T13:28:58;3.72;;;1.67;;
25299;SDS011;13241;51.208;4.432;2023-07-16T13:31:26;5.13;;;1.77;;
25299;SDS011;13241;51.208;4.432;2023-07-16T13:33:53;5.53;;;1.98;;
25299;SDS011;13241;51.208;4.432;2023-07-16T13:36:21;3.65;;;1.58;;
25299;SDS011;13241;51.208;4.432;2023-07-16T13:38:48;5.05;;;1.98;;
25299;SDS011;13241;51.208;4.432;2023-07-16T13:41:15;3.60;;;1.70;;
25299;SDS011;13241;51.208;4.432;2023-07-16T13:43:43;3.13;;;1.27;;
25299;SDS011;13241;51.208;4.432;2023-07-16T13:46:10;3.50;;;1.45;;
25299;SDS011;13241;51.208;4.432;2023-07-16T13:48:38;4.63;;;1.48;;
25299;SDS011;13241;51.208;4.432;2023-07-16T13:51:23;5.22;;;1.33;;
25299;SDS011;13241;51.208;4.432;2023-07-16T13:53:50;3.90;;;1.48;;
25299;SDS011;13241;51.208;4.432;2023-07-16T13:56:18;2.35;;;1.35;;
25299;SDS011;13241;51.208;4.432;2023-07-16T13:58:45;5.13;;;1.58;;
25299;SDS011;13241;51.208;4.432;2023-07-16T14:01:14;6.05;;;1.63;;
25299;SDS011;13241;51.208;4.432;2023-07-16T14:03:43;3.25;;;1.38;;
25299;SDS011;13241;51.208;4.432;2023-07-16T14:06:11;1.55;;;1.10;;
25299;SDS011;13241;51.208;4.432;2023-07-16T14:08:38;2.90;;;0.82;;
25299;SDS011;13241;51.208;4.432;2023-07-16T14:11:05;1.55;;;0.73;;
25299;SDS011;13241;51.208;4.432;2023-07-16T14:13:33;2.42;;;0.73;;
25299;SDS011;13241;51.208;4.432;2023-07-16T14:16:00;1.17;;;0.60;;
25299;SDS011;13241;51.208;4.432;2023-07-16T14:18:29;3.15;;;0.73;;
25299;SDS011;13241;51.208;4.432;2023-07-16T14:20:57;1.95;;;0.80;;
25299;SDS011;13241;51.208;4.432;2023-07-16T14:23:24;2.47;;;0.60;;
25299;SDS011;13241;51.208;4.432;2023-07-16T14:25:51;2.60;;;0.70;;
25299;SDS011;13241;51.208;4.432;2023-07-16T14:28:19;1.45;;;0.65;;
25299;SDS011;13241;51.208;4.432;2023-07-16T14:30:46;1.88;;;0.50;;
25299;SDS011;13241;51.208;4.432;2023-07-16T14:33:13;0.75;;;0.65;;
25299;SDS011;13241;51.208;4.432;2023-07-16T14:35:41;1.55;;;0.55;;
25299;SDS011;13241;51.208;4.432;2023-07-16T14:38:08;1.38;;;0.73;;
25299;SDS011;13241;51.208;4.432;2023-07-16T14:40:36;1.75;;;0.50;;
25299;SDS011;13241;51.208;4.432;2023-07-16T14:43:04;0.77;;;0.60;;
25299;SDS011;13241;51.208;4.432;2023-07-16T14:45:32;2.10;;;0.60;;
25299;SDS011;13241;51.208;4.432;2023-07-16T14:47:59;1.75;;;0.60;;
25299;SDS011;13241;51.208;4.432;2023-07-16T14:50:27;1.65;;;0.57;;
25299;SDS011;13241;51.208;4.432;2023-07-16T14:52:54;0.57;;;0.45;;
25299;SDS011;13241;51.208;4.432;2023-07-16T14:55:22;1.13;;;0.75;;
25299;SDS011;13241;51.208;4.432;2023-07-16T14:57:49;2.35;;;0.82;;
25299;SDS011;13241;51.208;4.432;2023-07-16T15:00:17;1.95;;;0.88;;
25299;SDS011;13241;51.208;4.432;2023-07-16T15:02:44;0.93;;;0.60;;